Time;durP1;ratioP1;P1;durP2;ratioP2;P2;SDS_P1;SDS_P2;PMS_P1;PMS_P2;Temp;Humidity;BMP_temperature;BMP_pressure;BME280_temperature;BME280_humidity;BME280_pressure;Samples;Min_cycle;Max_cycle;Signal;HPM_P1;HPM_P2
2023/10/13 00:00:48;;;;;;;5.13;1.55;;;;;;;9.98;100.00;99200.13;5046612;28;20059;-64
2023/10/13 00:03:15;;;;;;;9.48;2.20;;;;;;;9.91;100.00;99201.41;5046406;28;20130;-64
2023/10/13 00:05:43;;;;;;;6.57;1.80;;;;;;;10.15;100.00;99202.56;5048459;28;20052;-64
2023/10/13 00:08:11;;;;;;;6.15;1.80;;;;;;;10.19;100.00;99203.22;5048225;28;20474;-64
2023/10/13 00:10:38;;;;;;;4.85;1.42;;;;;;;10.04;100.00;99176.22;5052492;28;20171;-64
2023/10/13 00:13:15;;;;;;;6.85;1.58;;;;;;;9.80;100.00;99178.53;5060072;28;20421;-65
2023/10/13 00:16:03;;;;;;;6.20;1.50;;;;;;;10.06;100.00;99171.75;5063847;28;20511;-64
2023/10/13 00:18:33;;;;;;;5.53;1.73;;;;;;;9.99;100.00;99171.25;5052491;28;20075;-64
2023/10/13 00:21:12;;;;;;;7.18;1.70;;;;;;;9.96;100.00;99162.75;5038076;28;20087;-64
2023/10/13 00:23:52;;;;;;;11.57;1.80;;;;;;;9.86;100.00;99154.63;5052668;28;20053;-64
2023/10/13 00:26:28;;;;;;;6.72;1.98;;;;;;;9.77;100.00;99149.94;5052581;28;20445;-64
2023/10/13 00:29:01;;;;;;;7.65;2.13;;;;;;;9.93;100.00;99158.53;5053909;28;20099;-64
2023/10/13 00:31:33;;;;;;;7.40;1.95;;;;;;;9.93;100.00;99152.47;5061785;28;20048;-65
2023/10/13 00:34:09;;;;;;;7.72;1.80;;;;;;;10.04;100.00;99156.13;5060037;28;20053;-64
2023/10/13 00:36:37;;;;;;;5.32;1.48;;;;;;;9.93;100.00;99150.69;5060533;28;20528;-65
2023/10/13 00:39:07;;;;;;;10.48;2.15;;;;;;;9.62;100.00;99128.19;5041293;28;20487;-64
2023/10/13 00:44:28;;;;;;;7.50;1.70;;;;;;;9.91;100.00;99139.50;5051752;28;20052;-64
2023/10/13 00:46:56;;;;;;;8.18;1.73;;;;;;;9.79;100.00;99138.47;5051974;28;20053;-64
2023/10/13 00:49:24;;;;;;;8.90;1.80;;;;;;;9.69;100.00;99116.44;5048062;28;20044;-64
2023/10/13 00:51:51;;;;;;;9.10;2.17;;;;;;;9.92;100.00;99128.13;5064883;28;20383;-64
2023/10/13 00:54:26;;;;;;;6.50;1.80;;;;;;;9.98;100.00;99117.28;5066549;28;20055;-64
2023/10/13 00:57:03;;;;;;;6.60;1.80;;;;;;;10.02;100.00;99100.47;5040005;28;20085;-64
2023/10/13 00:59:36;;;;;;;4.75;1.48;;;;;;;10.11;100.00;99111.28;5048810;28;20055;-64
2023/10/13 01:02:37;;;;;;;8.93;1.85;;;;;;;10.01;100.00;99100.56;5058425;28;20045;-64
2023/10/13 01:04:50;;;;;;;3.90;1.27;;;;;;;9.93;100.00;99074.06;5055834;28;20474;-64
2023/10/13 01:07:17;;;;;;;7.63;1.80;;;;;;;10.00;100.00;99085.81;5049752;28;20546;-65
2023/10/13 01:09:44;;;;;;;6.32;1.77;;;;;;;9.87;100.00;99093.56;5051329;28;20045;-65
2023/10/13 01:12:11;;;;;;;4.60;1.35;;;;;;;10.08;100.00;99084.41;5050116;28;20048;-64
2023/10/13 01:14:37;;;;;;;9.05;2.08;;;;;;;9.88;100.00;99082.19;5051539;28;20045;-64
2023/10/13 01:17:04;;;;;;;6.93;1.35;;;;;;;10.02;100.00;99081.31;5056564;28;20052;-64
2023/10/13 01:19:45;;;;;;;3.78;1.20;;;;;;;10.15;100.00;99086.66;5059329;28;20052;-64
2023/10/13 01:22:12;;;;;;;10.35;1.92;;;;;;;10.05;100.00;99074.13;5050737;28;20053;-64
2023/10/13 01:24:39;;;;;;;7.63;1.77;;;;;;;10.00;100.00;99070.13;5054300;28;20063;-64
2023/10/13 01:27:25;;;;;;;5.93;1.52;;;;;;;10.09;100.00;99074.78;5052527;28;20049;-64
2023/10/13 01:30:09;;;;;;;5.47;1.52;;;;;;;10.15;100.00;99065.72;5050109;28;20052;-64
2023/10/13 01:32:45;;;;;;;6.70;1.42;;;;;;;9.99;100.00;99069.28;5047767;28;20059;-64
2023/10/13 01:35:12;;;;;;;3.22;1.23;;;;;;;9.88;100.00;99064.72;5058503;28;20040;-65
2023/10/13 01:37:38;;;;;;;6.03;1.65;;;;;;;10.03;100.00;99062.94;5055210;28;20773;-64
2023/10/13 01:40:06;;;;;;;8.50;1.58;;;;;;;9.89;100.00;99053.31;5051079;28;20049;-64
2023/10/13 01:42:32;;;;;;;8.90;1.90;;;;;;;9.71;100.00;99054.47;5049757;28;20453;-64
2023/10/13 01:45:05;;;;;;;8.45;2.25;;;;;;;9.91;100.00;99037.53;5050415;28;20055;-64
2023/10/13 01:47:35;;;;;;;5.45;1.73;;;;;;;9.91;100.00;99042.78;5050160;28;20501;-64
2023/10/13 01:50:14;;;;;;;9.20;1.70;;;;;;;9.82;100.00;99035.50;5057385;28;20128;-64
2023/10/13 01:52:43;;;;;;;5.85;1.40;;;;;;;9.82;100.00;99018.03;5043653;28;20049;-64
2023/10/13 01:55:11;;;;;;;6.85;1.60;;;;;;;9.91;100.00;99011.41;5058212;28;20499;-64
2023/10/13 01:57:40;;;;;;;5.65;1.65;;;;;;;9.64;100.00;99013.94;5051816;28;20445;-64
2023/10/13 02:00:19;;;;;;;6.68;2.00;;;;;;;9.80;100.00;99004.22;5048022;28;20056;-64
2023/10/13 02:02:49;;;;;;;3.58;1.20;;;;;;;9.88;100.00;99011.63;5049700;28;20505;-64
2023/10/13 02:05:17;;;;;;;6.45;1.65;;;;;;;9.87;100.00;99018.59;5052648;28;20768;-64
2023/10/13 02:07:46;;;;;;;7.82;2.05;;;;;;;9.57;100.00;98995.19;5058982;28;20056;-64
2023/10/13 02:10:13;;;;;;;6.85;1.63;;;;;;;9.73;100.00;99002.94;5054410;28;20048;-64
2023/10/13 02:12:42;;;;;;;7.60;1.70;;;;;;;9.65;100.00;98994.72;5047165;28;20152;-64
2023/10/13 02:15:34;;;;;;;6.60;1.95;;;;;;;9.61;100.00;99006.28;5064399;28;20474;-64
2023/10/13 02:18:01;;;;;;;9.00;1.73;;;;;;;9.45;100.00;98991.53;5059785;28;20171;-64
2023/10/13 02:20:30;;;;;;;8.77;2.20;;;;;;;9.45;100.00;98990.72;5051844;28;20134;-64
2023/10/13 02:22:57;;;;;;;6.70;1.48;;;;;;;9.45;100.00;98980.25;5045075;28;20080;-64
2023/10/13 02:25:35;;;;;;;6.82;1.60;;;;;;;9.35;100.00;98955.63;5052915;28;20138;-64
2023/10/13 02:28:07;;;;;;;7.07;1.85;;;;;;;9.67;100.00;98974.56;5049471;28;20049;-64
2023/10/13 02:30:44;;;;;;;10.35;2.10;;;;;;;9.47;100.00;98967.94;5049258;28;20059;-64
2023/10/13 02:33:12;;;;;;;12.88;1.70;;;;;;;9.36;100.00;98946.88;5054286;28;20123;-64
2023/10/13 02:35:50;;;;;;;8.18;1.70;;;;;;;9.49;100.00;98953.88;5052142;28;20399;-64
2023/10/13 02:38:26;;;;;;;5.85;1.52;;;;;;;9.53;100.00;98946.69;5048970;28;20044;-64
2023/10/13 02:40:54;;;;;;;7.97;1.90;;;;;;;9.35;100.00;98951.25;5053247;28;20059;-64
2023/10/13 02:43:22;;;;;;;10.48;1.73;;;;;;;9.25;100.00;98942.31;5049112;28;20402;-64
2023/10/13 02:45:58;;;;;;;6.13;1.80;;;;;;;9.25;100.00;98935.31;5051819;28;20045;-63
2023/10/13 02:48:30;;;;;;;3.92;1.30;;;;;;;9.44;100.00;98932.41;5049981;28;20823;-64
2023/10/13 02:51:01;;;;;;;7.50;1.58;;;;;;;9.19;100.00;98921.78;5060139;28;20048;-64
2023/10/13 02:53:28;;;;;;;8.52;1.65;;;;;;;9.13;100.00;98902.09;5044616;28;20052;-64
2023/10/13 02:55:58;;;;;;;5.90;1.75;;;;;;;9.34;100.00;98909.56;5049300;28;20072;-63
2023/10/13 02:58:34;;;;;;;4.93;1.45;;;;;;;9.37;100.00;98910.22;5053907;28;20415;-65
2023/10/13 03:01:03;;;;;;;6.72;1.60;;;;;;;9.29;100.00;98900.22;5058490;28;20045;-64
2023/10/13 03:03:30;;;;;;;7.10;1.83;;;;;;;9.16;100.00;98898.47;5042218;28;20056;-64
2023/10/13 03:05:59;;;;;;;6.85;1.85;;;;;;;9.32;100.00;98894.81;5060194;28;20497;-64
2023/10/13 03:08:27;;;;;;;7.45;1.73;;;;;;;9.52;100.00;98889.28;5051122;28;20529;-64
2023/10/13 03:10:54;;;;;;;5.32;1.40;;;;;;;9.43;100.00;98885.47;5048460;28;20514;-64
2023/10/13 03:13:21;;;;;;;6.47;1.73;;;;;;;9.52;100.00;98879.69;5047442;28;20076;-64
2023/10/13 03:15:48;;;;;;;7.97;1.73;;;;;;;9.42;100.00;98871.59;5052502;28;20399;-64
2023/10/13 03:18:18;;;;;;;8.30;1.67;;;;;;;9.49;100.00;98866.78;5048524;28;20419;-64
2023/10/13 03:20:50;;;;;;;5.55;2.00;;;;;;;9.29;100.00;98834.09;5048300;28;20044;-64
2023/10/13 03:23:17;;;;;;;6.30;1.60;;;;;;;9.23;100.00;98865.84;5052034;28;20084;-64
2023/10/13 03:25:43;;;;;;;7.45;1.70;;;;;;;9.36;100.00;98866.72;5053706;28;20095;-64
2023/10/13 03:28:13;;;;;;;7.10;1.50;;;;;;;9.04;100.00;98809.50;5050493;28;20041;-64
2023/10/13 03:30:42;;;;;;;6.10;1.50;;;;;;;9.39;100.00;98826.53;5048066;28;20641;-64
2023/10/13 03:33:11;;;;;;;4.65;1.30;;;;;;;9.61;100.00;98837.28;5047961;28;20084;-64
2023/10/13 03:35:42;;;;;;;4.50;1.40;;;;;;;9.55;100.00;98813.34;5061568;28;20087;-64
2023/10/13 03:38:19;;;;;;;5.88;1.30;;;;;;;9.45;100.00;98810.47;5052703;28;20052;-64
2023/10/13 03:41:07;;;;;;;3.55;1.20;;;;;;;9.38;100.00;98793.50;5047490;28;20514;-64
2023/10/13 03:43:44;;;;;;;4.32;1.30;;;;;;;9.41;100.00;98794.16;5051177;28;20056;-63
2023/10/13 03:46:12;;;;;;;4.20;1.40;;;;;;;9.09;100.00;98772.69;5054442;28;20045;-64
2023/10/13 03:48:55;;;;;;;6.75;1.45;;;;;;;9.14;100.00;98760.19;5058164;28;20163;-64
2023/10/13 03:51:30;;;;;;;4.57;1.30;;;;;;;9.20;100.00;98783.28;5042340;28;20405;-64
2023/10/13 03:53:58;;;;;;;4.40;1.50;;;;;;;9.12;100.00;98770.72;5057896;28;20059;-63
2023/10/13 03:56:52;;;;;;;5.57;1.48;;;;;;;8.99;100.00;98767.19;5049424;28;20466;-64
2023/10/13 04:01:45;;;;;;;4.68;1.30;;;;;;;8.98;100.00;98746.41;5046487;28;20049;-64
2023/10/13 04:04:15;;;;;;;5.57;1.63;;;;;;;9.04;100.00;98744.25;5038472;28;20041;-64
2023/10/13 04:17:25;;;;;;;5.85;1.52;;;;;;;8.87;100.00;98710.53;5043825;28;20052;-64
2023/10/13 04:28:15;;;;;;;7.53;1.80;;;;;;;8.88;100.00;98702.63;5039655;28;20114;-64
2023/10/13 04:33:35;;;;;;;6.40;1.75;;;;;;;8.83;100.00;98696.03;5037776;28;20052;-64
2023/10/13 04:36:16;;;;;;;5.88;1.45;;;;;;;8.91;100.00;98693.78;5062512;28;20051;-64
2023/10/13 04:41:37;;;;;;;4.88;1.20;;;;;;;9.03;100.00;98673.88;5046868;28;20057;-64
2023/10/13 04:44:48;;;;;;;6.80;1.30;;;;;;;9.01;100.00;98666.16;5062117;28;20052;-64
2023/10/13 04:47:17;;;;;;;6.70;1.63;;;;;;;8.77;100.00;98665.94;5055895;28;20056;-64
2023/10/13 04:52:38;;;;;;;3.58;1.63;;;;;;;8.69;100.00;98634.25;5044825;28;20053;-64
2023/10/13 04:57:49;;;;;;;6.05;1.52;;;;;;;8.89;100.00;98630.41;5051501;28;20057;-64
2023/10/13 06:28:45;;;;;;;4.45;1.20;;;;;;;8.80;100.00;98543.09;5045729;28;20517;-64
2023/10/13 06:31:21;;;;;;;10.20;1.80;;;;;;;8.80;100.00;98542.25;5043542;28;20049;-64
2023/10/13 06:33:49;;;;;;;5.40;1.70;;;;;;;8.77;100.00;98527.66;5040377;28;20045;-64
2023/10/13 06:36:17;;;;;;;3.58;1.23;;;;;;;8.76;100.00;98532.97;5044404;28;20045;-64
2023/10/13 06:38:44;;;;;;;8.45;1.77;;;;;;;8.71;100.00;98528.03;5044720;28;20076;-64
2023/10/13 06:41:19;;;;;;;5.53;1.50;;;;;;;8.76;100.00;98515.53;5044958;28;20483;-64
2023/10/13 06:43:58;;;;;;;7.78;1.92;;;;;;;8.78;100.00;98511.03;5051243;28;20052;-64
2023/10/13 06:46:28;;;;;;;5.32;1.50;;;;;;;8.81;100.00;98518.66;5049901;28;20570;-64
2023/10/13 06:48:59;;;;;;;6.68;1.90;;;;;;;8.70;100.00;98518.53;5050752;28;20179;-64
2023/10/13 06:51:30;;;;;;;6.10;1.95;;;;;;;8.72;100.00;98503.63;5048598;28;20064;-64
2023/10/13 06:53:58;;;;;;;5.57;1.58;;;;;;;8.81;100.00;98497.78;5048758;28;20124;-64
2023/10/13 06:56:28;;;;;;;5.18;1.45;;;;;;;8.74;100.00;98499.97;5048802;28;20053;-64
2023/10/13 06:59:04;;;;;;;9.13;1.60;;;;;;;8.87;100.00;98512.22;5047436;28;20077;-64
2023/10/13 07:01:38;;;;;;;5.35;1.52;;;;;;;8.75;100.00;98500.81;5047515;28;20406;-64
2023/10/13 07:04:15;;;;;;;5.68;1.40;;;;;;;8.88;100.00;98522.53;5047802;28;20051;-64
2023/10/13 07:06:49;;;;;;;8.13;2.15;;;;;;;8.96;100.00;98516.84;5048562;28;20175;-64
2023/10/13 07:14:53;;;;;;;6.50;1.80;;;;;;;8.95;100.00;98506.50;5043281;28;20056;-63
2023/10/13 07:17:26;;;;;;;6.22;1.70;;;;;;;9.01;100.00;98498.25;5039256;28;20052;-63
2023/10/13 07:19:56;;;;;;;5.18;1.75;;;;;;;8.96;100.00;98498.56;5043388;28;20140;-63
2023/10/13 07:22:23;;;;;;;4.57;1.63;;;;;;;8.90;100.00;98494.56;5043718;28;20049;-64
2023/10/13 07:24:50;;;;;;;11.32;4.00;;;;;;;9.04;100.00;98488.44;5049499;28;20059;-66
2023/10/13 07:27:23;;;;;;;6.03;2.05;;;;;;;9.06;100.00;98483.13;5048824;28;20052;-67
2023/10/13 07:30:41;;;;;;;9.50;2.00;;;;;;;9.04;100.00;98470.16;5044708;28;20049;-67
2023/10/13 07:32:45;;;;;;;6.75;1.75;;;;;;;9.14;100.00;98478.22;5035676;28;20051;-67
2023/10/13 07:35:24;;;;;;;9.25;1.73;;;;;;;9.20;100.00;98492.63;5047743;28;20041;-67
2023/10/13 07:37:54;;;;;;;4.75;1.40;;;;;;;9.18;100.00;98497.13;5047509;28;20122;-66
2023/10/13 07:40:50;;;;;;;8.50;1.73;;;;;;;9.13;100.00;98490.41;5049190;28;20045;-67
2023/10/13 07:43:10;;;;;;;4.18;1.50;;;;;;;9.32;100.00;98494.41;5046871;28;20546;-67
2023/10/13 07:45:39;;;;;;;5.82;1.60;;;;;;;9.29;100.00;98484.16;5046917;28;20091;-67
2023/10/13 07:48:20;;;;;;;6.53;1.50;;;;;;;9.37;100.00;98488.88;5048577;28;20486;-67
2023/10/13 07:51:03;;;;;;;4.45;1.75;;;;;;;9.43;100.00;98478.00;5047566;28;20487;-67
2023/10/13 07:53:40;;;;;;;9.07;2.15;;;;;;;9.35;100.00;98481.16;5045700;28;20064;-67
2023/10/13 07:56:11;;;;;;;4.00;1.42;;;;;;;9.42;100.00;98465.88;5019154;28;20099;-67
2023/10/13 07:58:52;;;;;;;4.78;1.55;;;;;;;9.57;100.00;98475.25;5044370;28;20111;-67
2023/10/13 08:01:19;;;;;;;9.30;1.98;;;;;;;9.54;100.00;98480.69;5047977;28;20072;-67
2023/10/13 08:03:46;;;;;;;12.52;2.40;;;;;;;9.59;100.00;98481.22;5048958;28;20444;-67
2023/10/13 08:08:53;;;;;;;11.70;2.10;;;;;;;9.59;100.00;98452.47;5048925;28;20057;-67
2023/10/13 08:13:54;;;;;;;5.43;1.60;;;;;;;10.16;100.00;98471.97;5042550;28;20576;-67
2023/10/13 08:16:45;;;;;;;7.80;1.77;;;;;;;10.15;100.00;98472.09;5049462;28;20408;-67
2023/10/13 08:19:16;;;;;;;9.27;1.83;;;;;;;10.14;100.00;98473.88;5048909;28;20053;-67
2023/10/13 08:22:23;;;;;;;4.60;1.63;;;;;;;10.13;100.00;98466.97;5048432;28;20057;-67
2023/10/13 08:27:48;;;;;;;5.97;2.38;;;;;;;10.29;100.00;98452.78;5049360;28;20091;-67
2023/10/13 08:30:29;;;;;;;9.98;1.98;;;;;;;10.33;100.00;98452.50;5050407;28;20457;-67
2023/10/13 08:32:58;;;;;;;10.15;1.77;;;;;;;10.31;100.00;98448.28;5046168;28;20392;-67
2023/10/13 08:43:13;;;;;;;6.10;1.50;;;;;;;10.20;100.00;98428.97;5052074;28;20041;-67
2023/10/13 08:56:15;;;;;;;6.15;1.52;;;;;;;10.21;100.00;98406.28;5052301;28;20084;-67
2023/10/13 09:01:46;;;;;;;7.53;2.17;;;;;;;10.38;100.00;98386.75;5042927;28;20056;-67
2023/10/13 09:09:40;;;;;;;6.35;1.40;;;;;;;10.42;100.00;98386.41;5045116;28;20091;-67
2023/10/13 09:12:11;;;;;;;4.38;1.67;;;;;;;10.48;100.00;98376.44;5050039;28;20053;-67
2023/10/13 09:14:44;;;;;;;6.80;1.60;;;;;;;10.67;100.00;98394.22;5042366;28;20049;-67
2023/10/13 09:19:48;;;;;;;4.57;1.48;;;;;;;10.60;100.00;98385.97;5050094;28;20080;-67
2023/10/13 09:22:35;;;;;;;6.20;1.55;;;;;;;10.61;100.00;98366.72;5034993;28;20053;-67
2023/10/13 09:25:04;;;;;;;8.40;1.95;;;;;;;10.78;100.00;98383.75;5050650;28;20474;-67
2023/10/13 09:27:33;;;;;;;5.03;1.50;;;;;;;10.84;100.00;98383.31;5048263;28;20060;-67
2023/10/13 09:30:09;;;;;;;5.82;1.63;;;;;;;11.02;100.00;98391.53;5051859;28;20049;-67
2023/10/13 09:32:45;;;;;;;3.25;1.27;;;;;;;11.18;100.00;98378.09;5038605;28;20085;-67
2023/10/13 09:35:18;;;;;;;5.45;1.45;;;;;;;11.36;100.00;98386.28;5053361;28;20170;-67
2023/10/13 09:37:48;;;;;;;5.70;1.42;;;;;;;11.47;100.00;98390.69;5053262;28;20080;-67
2023/10/13 09:40:34;;;;;;;8.48;1.42;;;;;;;11.68;100.00;98390.78;5051542;28;20045;-67
2023/10/13 09:43:07;;;;;;;5.85;1.40;;;;;;;12.00;100.00;98385.59;5049360;28;20144;-67
2023/10/13 09:48:26;;;;;;;4.43;1.20;;;;;;;12.13;100.00;98385.47;5048466;28;20041;-67
2023/10/13 09:50:59;;;;;;;4.93;1.30;;;;;;;12.19;100.00;98376.25;5050203;28;20071;-68
2023/10/13 09:53:26;;;;;;;4.47;1.30;;;;;;;12.09;100.00;98366.50;5050605;28;20139;-67
2023/10/13 09:56:14;;;;;;;4.60;1.30;;;;;;;12.32;100.00;98327.03;5041085;28;20045;-67
2023/10/13 09:58:51;;;;;;;3.38;1.13;;;;;;;12.47;100.00;98333.63;5048255;28;20509;-68
2023/10/13 10:01:31;;;;;;;6.18;1.40;;;;;;;12.38;100.00;98349.31;5050222;28;20045;-67
2023/10/13 10:04:16;;;;;;;6.00;1.35;;;;;;;12.98;100.00;98337.25;5051759;28;20160;-67
2023/10/13 10:06:56;;;;;;;4.80;1.65;;;;;;;13.07;100.00;98349.56;5049651;28;20102;-68
2023/10/13 10:09:43;;;;;;;10.93;1.95;;;;;;;12.78;100.00;98349.41;5043260;28;20502;-67
2023/10/13 10:12:28;;;;;;;7.47;1.80;;;;;;;12.81;100.00;98333.41;5049597;28;20103;-67
2023/10/13 10:15:10;;;;;;;11.40;2.30;;;;;;;12.86;100.00;98349.63;5046293;28;20053;-67
2023/10/13 10:17:42;;;;;;;12.07;2.78;;;;;;;12.65;100.00;98340.94;5051281;28;20036;-67
2023/10/13 10:20:19;;;;;;;13.40;2.67;;;;;;;12.60;100.00;98359.69;5051049;28;20545;-67
2023/10/13 10:22:59;;;;;;;30.70;14.00;;;;;;;12.43;100.00;98365.50;5046904;28;20124;-67
2023/10/13 10:25:37;;;;;;;22.55;9.35;;;;;;;12.62;100.00;98355.13;5050751;28;20264;-67
2023/10/13 10:28:07;;;;;;;16.92;6.60;;;;;;;12.90;100.00;98352.81;5039402;28;20076;-67
2023/10/13 10:30:38;;;;;;;14.77;3.50;;;;;;;13.15;100.00;98354.16;5047931;28;20422;-68
2023/10/13 10:33:12;;;;;;;14.15;2.72;;;;;;;13.20;100.00;98351.16;5045921;28;20049;-68
2023/10/13 10:35:42;;;;;;;11.38;2.97;;;;;;;13.14;100.00;98354.28;5050611;28;20052;-67
2023/10/13 10:41:00;;;;;;;13.38;4.28;;;;;;;12.83;100.00;98344.63;5049790;28;20045;-68
2023/10/13 10:43:41;;;;;;;13.52;3.67;;;;;;;12.78;100.00;98333.66;5050800;28;20056;-68
2023/10/13 10:46:25;;;;;;;15.18;3.17;;;;;;;12.93;100.00;98326.28;5046762;28;20049;-67
2023/10/13 10:48:56;;;;;;;15.40;2.90;;;;;;;12.98;100.00;98329.34;5049762;28;20041;-67
2023/10/13 10:51:23;;;;;;;15.30;6.38;;;;;;;13.03;100.00;98328.94;5055676;28;20379;-67
2023/10/13 10:53:55;;;;;;;16.08;7.35;;;;;;;13.12;100.00;98320.28;5049490;28;20090;-68
2023/10/13 10:56:36;;;;;;;12.93;4.15;;;;;;;13.00;100.00;98340.56;5050670;28;20071;-67
2023/10/13 10:59:05;;;;;;;14.35;4.93;;;;;;;12.98;100.00;98313.59;5045024;28;20056;-67
2023/10/13 11:01:38;;;;;;;16.95;4.75;;;;;;;13.00;100.00;98316.09;5044929;28;20064;-68
2023/10/13 11:06:56;;;;;;;12.35;5.25;;;;;;;13.18;100.00;98308.41;5050121;28;20087;-68
2023/10/13 11:09:31;;;;;;;8.98;3.45;;;;;;;13.28;100.00;98302.22;5050344;28;20053;-67
2023/10/13 11:12:27;;;;;;;9.93;3.13;;;;;;;13.48;100.00;98297.84;5048856;28;20057;-68
2023/10/13 11:15:00;;;;;;;8.38;2.00;;;;;;;13.25;100.00;98280.63;5049527;28;20075;-67
2023/10/13 11:17:41;;;;;;;10.43;4.03;;;;;;;13.42;100.00;98276.53;5046851;28;20558;-67
2023/10/13 11:20:16;;;;;;;12.38;3.55;;;;;;;13.68;100.00;98295.25;5049563;28;20055;-67
2023/10/13 11:22:47;;;;;;;13.07;2.97;;;;;;;13.49;100.00;98288.16;5047349;28;20045;-68
2023/10/13 11:25:22;;;;;;;9.10;2.05;;;;;;;13.40;100.00;98286.34;5046984;28;20049;-67
2023/10/13 11:30:20;;;;;;;16.40;5.85;;;;;;;13.55;100.00;98271.03;5049404;28;20053;-67
2023/10/13 11:33:03;;;;;;;10.13;2.75;;;;;;;13.51;100.00;98259.13;5051558;28;20499;-67
2023/10/13 11:35:48;;;;;;;;;;;;;;;13.64;100.00;98263.16;5041061;28;20147;-67
2023/10/13 11:38:24;;;;;;;16.80;6.28;;;;;;;13.63;100.00;98273.78;5046364;28;20467;-67
2023/10/13 11:41:07;;;;;;;13.73;4.45;;;;;;;13.75;98.23;98282.41;5042907;28;20133;-67
2023/10/13 11:46:14;;;;;;;13.13;4.63;;;;;;;13.37;100.00;98257.72;5048424;28;20057;-67
2023/10/13 11:48:46;;;;;;;9.40;2.53;;;;;;;13.37;100.00;98266.44;5049084;28;20045;-67
2023/10/13 11:51:23;;;;;;;11.55;2.83;;;;;;;13.36;100.00;98264.78;5049394;28;20088;-67
2023/10/13 11:53:53;;;;;;;15.82;5.57;;;;;;;13.36;100.00;98254.25;5049998;28;20088;-67
2023/10/13 11:56:20;;;;;;;14.13;6.07;;;;;;;13.64;100.00;98262.31;5049651;28;20497;-68
2023/10/13 11:58:48;;;;;;;14.60;3.75;;;;;;;13.50;100.00;98260.94;5049470;28;20087;-67
2023/10/13 12:06:47;;;;;;;9.30;2.00;;;;;;;13.76;96.74;98268.28;5052933;28;20515;-67
2023/10/13 12:11:50;;;;;;;8.35;1.73;;;;;;;13.76;92.58;98279.63;5048802;28;20084;-67
2023/10/13 12:14:37;;;;;;;9.30;1.73;;;;;;;13.83;93.35;98282.53;5052785;28;20148;-67
2023/10/13 12:17:04;;;;;;;6.72;1.40;;;;;;;13.85;91.52;98281.44;5053007;28;20479;-68
2023/10/13 12:19:31;;;;;;;7.18;1.60;;;;;;;13.96;89.58;98285.72;5053350;28;20136;-67
2023/10/13 12:22:04;;;;;;;5.88;1.55;;;;;;;14.18;91.10;98274.06;5048424;28;20049;-67
2023/10/13 12:27:18;;;;;;;8.80;2.83;;;;;;;14.18;85.59;98273.22;5052464;28;20045;-67
2023/10/13 12:29:46;;;;;;;8.43;2.10;;;;;;;14.14;80.42;98282.38;5048947;28;20049;-67
2023/10/13 12:32:14;;;;;;;6.53;1.50;;;;;;;14.15;82.62;98261.19;5051577;28;20128;-68
2023/10/13 12:48:58;;;;;;;8.15;2.15;;;;;;;14.14;81.66;98258.69;5045680;28;20040;-67
2023/10/13 12:54:13;;;;;;;5.50;1.38;;;;;;;14.26;83.10;98262.00;5053388;28;20045;-68
2023/10/13 12:56:42;;;;;;;6.20;1.33;;;;;;;14.03;84.38;98268.41;5054923;28;20047;-68
2023/10/13 12:59:13;;;;;;;2.45;0.93;;;;;;;14.00;83.87;98265.22;5051574;28;20041;-68
2023/10/13 13:01:43;;;;;;;5.47;1.10;;;;;;;14.15;84.68;98258.56;5047567;28;20335;-68
2023/10/13 13:04:31;;;;;;;5.00;1.00;;;;;;;13.91;85.91;98277.41;5052842;28;20053;-68
2023/10/13 13:06:58;;;;;;;6.38;1.20;;;;;;;13.63;88.98;98271.16;5051905;28;20637;-68
2023/10/13 13:09:28;;;;;;;5.70;1.00;;;;;;;13.83;89.43;98270.22;5052111;28;20045;-68
2023/10/13 13:11:58;;;;;;;3.97;1.00;;;;;;;13.97;92.04;98262.84;5051915;28;20052;-68
2023/10/13 13:14:28;;;;;;;4.93;1.35;;;;;;;13.94;91.64;98258.72;5051609;28;20052;-68
2023/10/13 13:17:14;;;;;;;8.68;2.20;;;;;;;13.81;91.99;98259.00;5048847;28;20056;-68
2023/10/13 13:19:41;;;;;;;13.63;4.50;;;;;;;13.60;96.73;98248.63;5051978;28;20048;-68
2023/10/13 13:22:12;;;;;;;10.40;3.35;;;;;;;13.81;99.94;98260.78;5047201;28;20052;-68
2023/10/13 13:24:46;;;;;;;6.75;1.55;;;;;;;13.72;98.84;98251.09;5052657;28;20049;-68
2023/10/13 13:27:24;;;;;;;6.25;1.48;;;;;;;13.73;100.00;98272.00;5052758;28;20497;-68
2023/10/13 13:29:51;;;;;;;7.97;1.15;;;;;;;13.88;100.00;98272.41;5046712;28;20053;-68
2023/10/13 13:32:23;;;;;;;5.85;1.23;;;;;;;13.64;100.00;98267.59;5050746;28;20048;-68
2023/10/13 13:34:57;;;;;;;6.05;1.25;;;;;;;13.75;100.00;98287.66;5051527;28;20088;-68
2023/10/13 13:37:27;;;;;;;1.77;0.82;;;;;;;13.85;100.00;98283.22;5048477;28;20478;-68
2023/10/13 13:39:54;;;;;;;4.53;1.30;;;;;;;13.65;100.00;98274.50;5051550;28;20072;-68
2023/10/13 13:42:21;;;;;;;5.20;1.40;;;;;;;13.41;100.00;98290.66;5050330;28;20049;-68
2023/10/13 13:44:47;;;;;;;6.70;1.45;;;;;;;13.60;100.00;98274.09;5050659;28;20049;-68
2023/10/13 13:47:16;;;;;;;4.75;1.23;;;;;;;13.64;100.00;98283.34;5051698;28;20490;-68
2023/10/13 13:49:51;;;;;;;2.22;0.98;;;;;;;13.91;100.00;98274.78;5050902;28;20457;-68
2023/10/13 13:52:21;;;;;;;5.53;1.40;;;;;;;13.85;100.00;98276.16;5048751;28;20055;-68
2023/10/13 13:54:48;;;;;;;6.18;1.45;;;;;;;13.54;100.00;98290.41;5050115;28;20049;-68
2023/10/13 13:57:14;;;;;;;5.80;1.30;;;;;;;13.68;100.00;98255.81;5051151;28;20406;-68
2023/10/13 13:59:45;;;;;;;7.30;1.30;;;;;;;13.79;100.00;98273.25;5051057;28;20616;-68
2023/10/13 14:02:21;;;;;;;7.30;1.73;;;;;;;13.66;96.75;98281.41;5049645;28;20061;-68
2023/10/13 14:04:50;;;;;;;4.70;1.42;;;;;;;13.98;97.59;98290.84;5050334;28;20525;-68
2023/10/13 14:07:19;;;;;;;7.15;1.90;;;;;;;13.67;95.93;98291.81;5051087;28;20060;-68
2023/10/13 14:09:51;;;;;;;12.23;2.17;;;;;;;13.75;94.06;98295.53;5045624;28;20533;-68
2023/10/13 14:12:41;;;;;;;6.75;1.77;;;;;;;13.90;94.73;98296.81;5050817;28;20045;-68
2023/10/13 14:15:23;;;;;;;8.77;2.22;;;;;;;13.62;94.71;98274.78;5047349;28;20060;-68
2023/10/13 14:17:50;;;;;;;8.50;2.47;;;;;;;13.71;96.08;98287.09;5049009;28;20048;-68
2023/10/13 14:20:20;;;;;;;8.90;2.40;;;;;;;13.71;98.15;98299.44;5049737;28;20465;-68
2023/10/13 14:22:52;;;;;;;4.90;1.52;;;;;;;13.77;96.11;98296.22;5052362;28;20465;-68
2023/10/13 14:25:24;;;;;;;4.15;1.30;;;;;;;13.39;100.00;98279.47;5049986;28;20131;-68
2023/10/13 14:27:51;;;;;;;8.25;1.48;;;;;;;13.45;100.00;98292.88;5048899;28;20045;-68
2023/10/13 14:30:21;;;;;;;4.20;1.38;;;;;;;13.70;100.00;98298.56;5050305;28;20048;-68
2023/10/13 14:32:48;;;;;;;5.07;1.23;;;;;;;13.76;100.00;98286.69;5049271;28;20047;-68
2023/10/13 14:35:15;;;;;;;4.18;1.13;;;;;;;13.90;100.00;98282.81;5051009;28;20052;-68
2023/10/13 14:37:41;;;;;;;5.93;1.40;;;;;;;13.60;100.00;98303.00;5050722;28;20084;-68
2023/10/13 14:40:15;;;;;;;8.30;1.98;;;;;;;13.47;100.00;98301.47;5049595;28;20052;-68
2023/10/13 14:42:42;;;;;;;8.20;1.30;;;;;;;13.19;100.00;98287.25;5048512;28;20049;-68
2023/10/13 14:45:12;;;;;;;5.85;1.30;;;;;;;13.14;100.00;98283.34;5049215;28;20045;-68
2023/10/13 14:47:40;;;;;;;7.72;1.30;;;;;;;13.09;100.00;98302.16;5049022;28;20045;-68
2023/10/13 14:50:17;;;;;;;5.32;1.48;;;;;;;13.20;100.00;98301.22;5049826;28;20102;-68
2023/10/13 14:52:44;;;;;;;7.85;1.30;;;;;;;13.32;100.00;98296.72;5050296;28;20053;-68
2023/10/13 14:55:38;;;;;;;7.80;1.45;;;;;;;13.39;100.00;98313.63;5050190;28;20143;-68
2023/10/13 14:58:04;;;;;;;4.85;1.20;;;;;;;13.29;100.00;98297.78;5049904;28;20399;-68
2023/10/13 15:00:31;;;;;;;5.53;1.10;;;;;;;13.41;100.00;98307.25;5049456;28;20474;-68
2023/10/13 15:03:02;;;;;;;6.00;1.48;;;;;;;13.18;100.00;98313.66;5046447;28;20052;-68
2023/10/13 15:05:29;;;;;;;5.20;1.30;;;;;;;13.03;100.00;98313.19;5047442;28;20344;-68
2023/10/13 15:07:56;;;;;;;7.95;1.40;;;;;;;13.13;100.00;98331.63;5050872;28;20551;-68
2023/10/13 15:10:25;;;;;;;5.40;1.48;;;;;;;12.97;100.00;98317.19;5049443;28;20052;-68
2023/10/13 15:12:52;;;;;;;5.28;1.33;;;;;;;12.89;99.43;98327.50;5043783;28;20478;-67
2023/10/13 15:15:19;;;;;;;7.22;1.98;;;;;;;12.58;95.44;98321.41;5049513;28;20052;-68
2023/10/13 15:17:47;;;;;;;6.78;1.40;;;;;;;12.62;93.02;98325.44;5050231;28;20617;-68
2023/10/13 15:20:17;;;;;;;5.53;1.15;;;;;;;12.86;95.77;98328.59;5050317;28;20052;-68
2023/10/13 15:22:47;;;;;;;3.67;1.08;;;;;;;12.63;94.70;98333.19;5045971;28;20052;-68